sensor_id;sensor_type;location;lat;lon;timestamp;temperature;humidity
16517;DHT22;8371;52.272;9.746;2023-04-08T00:01:25;8.70;57.80
16517;DHT22;8371;52.272;9.746;2023-04-08T00:03:50;8.70;57.80
16517;DHT22;8371;52.272;9.746;2023-04-08T00:06:16;8.70;56.80
16517;DHT22;8371;52.272;9.746;2023-04-08T00:08:42;8.70;56.70
16517;DHT22;8371;52.272;9.746;2023-04-08T00:11:07;8.80;56.60
16517;DHT22;8371;52.272;9.746;2023-04-08T00:13:33;8.70;57.50
16517;DHT22;8371;52.272;9.746;2023-04-08T00:15:59;8.70;59.00
16517;DHT22;8371;52.272;9.746;2023-04-08T00:18:25;8.70;57.90
16517;DHT22;8371;52.272;9.746;2023-04-08T00:20:51;8.70;57.00
16517;DHT22;8371;52.272;9.746;2023-04-08T00:23:17;8.70;59.00
16517;DHT22;8371;52.272;9.746;2023-04-08T00:25:42;8.60;58.30
16517;DHT22;8371;52.272;9.746;2023-04-08T00:28:08;8.60;59.70
16517;DHT22;8371;52.272;9.746;2023-04-08T00:30:34;8.60;58.30
16517;DHT22;8371;52.272;9.746;2023-04-08T00:32:59;8.60;57.90
16517;DHT22;8371;52.272;9.746;2023-04-08T00:35:26;8.60;58.30
16517;DHT22;8371;52.272;9.746;2023-04-08T00:37:51;8.60;59.50
16517;DHT22;8371;52.272;9.746;2023-04-08T00:40:17;8.60;58.40
16517;DHT22;8371;52.272;9.746;2023-04-08T00:42:43;8.60;59.00
16517;DHT22;8371;52.272;9.746;2023-04-08T00:45:09;8.60;58.20
16517;DHT22;8371;52.272;9.746;2023-04-08T00:47:35;8.60;58.40
16517;DHT22;8371;52.272;9.746;2023-04-08T00:50:02;8.60;58.30
16517;DHT22;8371;52.272;9.746;2023-04-08T00:52:28;8.60;58.40
16517;DHT22;8371;52.272;9.746;2023-04-08T00:54:54;8.60;59.40
16517;DHT22;8371;52.272;9.746;2023-04-08T00:57:20;8.60;59.70
16517;DHT22;8371;52.272;9.746;2023-04-08T00:59:46;8.60;58.30
16517;DHT22;8371;52.272;9.746;2023-04-08T01:02:30;8.50;58.20
16517;DHT22;8371;52.272;9.746;2023-04-08T01:04:54;8.60;58.20
16517;DHT22;8371;52.272;9.746;2023-04-08T01:07:37;8.60;58.60
16517;DHT22;8371;52.272;9.746;2023-04-08T01:10:11;8.60;58.80
16517;DHT22;8371;52.272;9.746;2023-04-08T01:12:56;8.60;58.40
16517;DHT22;8371;52.272;9.746;2023-04-08T01:15:23;8.60;58.20
16517;DHT22;8371;52.272;9.746;2023-04-08T01:17:53;8.50;57.90
16517;DHT22;8371;52.272;9.746;2023-04-08T01:20:20;8.50;58.60
16517;DHT22;8371;52.272;9.746;2023-04-08T01:23:17;8.50;59.20
16517;DHT22;8371;52.272;9.746;2023-04-08T01:25:52;8.50;58.50
16517;DHT22;8371;52.272;9.746;2023-04-08T01:28:16;8.40;58.70
16517;DHT22;8371;52.272;9.746;2023-04-08T01:30:43;8.40;59.50
16517;DHT22;8371;52.272;9.746;2023-04-08T01:33:11;8.40;59.30
16517;DHT22;8371;52.272;9.746;2023-04-08T01:35:37;8.40;59.30
16517;DHT22;8371;52.272;9.746;2023-04-08T01:38:04;8.40;59.10
16517;DHT22;8371;52.272;9.746;2023-04-08T01:40:32;8.40;59.20
16517;DHT22;8371;52.272;9.746;2023-04-08T01:42:59;8.40;58.90
16517;DHT22;8371;52.272;9.746;2023-04-08T01:45:26;8.40;60.10
16517;DHT22;8371;52.272;9.746;2023-04-08T01:47:54;8.40;59.50
16517;DHT22;8371;52.272;9.746;2023-04-08T01:50:20;8.40;59.10
16517;DHT22;8371;52.272;9.746;2023-04-08T01:52:48;8.30;59.30
16517;DHT22;8371;52.272;9.746;2023-04-08T01:55:15;8.30;59.10
16517;DHT22;8371;52.272;9.746;2023-04-08T01:57:43;8.40;58.80
16517;DHT22;8371;52.272;9.746;2023-04-08T02:00:11;8.40;58.70
16517;DHT22;8371;52.272;9.746;2023-04-08T02:02:39;8.40;58.50
16517;DHT22;8371;52.272;9.746;2023-04-08T02:05:07;8.40;58.10
16517;DHT22;8371;52.272;9.746;2023-04-08T02:07:33;8.40;58.70
16517;DHT22;8371;52.272;9.746;2023-04-08T02:09:58;8.40;59.40
16517;DHT22;8371;52.272;9.746;2023-04-08T02:12:24;8.40;59.60
16517;DHT22;8371;52.272;9.746;2023-04-08T02:14:52;8.40;59.30
16517;DHT22;8371;52.272;9.746;2023-04-08T02:17:23;8.40;59.30
16517;DHT22;8371;52.272;9.746;2023-04-08T02:22:24;8.40;59.20
16517;DHT22;8371;52.272;9.746;2023-04-08T02:24:50;8.40;59.40
16517;DHT22;8371;52.272;9.746;2023-04-08T02:27:16;8.40;59.40
16517;DHT22;8371;52.272;9.746;2023-04-08T02:29:44;8.40;59.40
16517;DHT22;8371;52.272;9.746;2023-04-08T02:32:11;8.40;59.10
16517;DHT22;8371;52.272;9.746;2023-04-08T02:34:39;8.40;59.30
16517;DHT22;8371;52.272;9.746;2023-04-08T02:37:05;8.40;60.00
16517;DHT22;8371;52.272;9.746;2023-04-08T02:39:31;8.50;59.70
16517;DHT22;8371;52.272;9.746;2023-04-08T02:41:57;8.50;59.40
16517;DHT22;8371;52.272;9.746;2023-04-08T02:44:23;8.50;60.00
16517;DHT22;8371;52.272;9.746;2023-04-08T02:46:49;8.50;59.40
16517;DHT22;8371;52.272;9.746;2023-04-08T02:49:15;8.50;58.80
16517;DHT22;8371;52.272;9.746;2023-04-08T02:51:40;8.50;59.30
16517;DHT22;8371;52.272;9.746;2023-04-08T02:54:06;8.50;59.50
16517;DHT22;8371;52.272;9.746;2023-04-08T02:56:32;8.60;60.40
16517;DHT22;8371;52.272;9.746;2023-04-08T02:58:58;8.60;59.70
16517;DHT22;8371;52.272;9.746;2023-04-08T03:01:23;8.60;59.80
16517;DHT22;8371;52.272;9.746;2023-04-08T03:03:49;8.60;60.00
16517;DHT22;8371;52.272;9.746;2023-04-08T03:06:15;8.60;59.90
16517;DHT22;8371;52.272;9.746;2023-04-08T03:08:41;8.60;59.80
16517;DHT22;8371;52.272;9.746;2023-04-08T03:11:06;8.60;60.50
16517;DHT22;8371;52.272;9.746;2023-04-08T03:13:32;8.60;61.80
16517;DHT22;8371;52.272;9.746;2023-04-08T03:15:58;8.60;61.00
16517;DHT22;8371;52.272;9.746;2023-04-08T03:18:24;8.70;60.30
16517;DHT22;8371;52.272;9.746;2023-04-08T03:20:50;8.60;60.30
16517;DHT22;8371;52.272;9.746;2023-04-08T03:23:15;8.60;60.10
16517;DHT22;8371;52.272;9.746;2023-04-08T03:25:41;8.60;60.40
16517;DHT22;8371;52.272;9.746;2023-04-08T03:28:06;8.60;60.50
16517;DHT22;8371;52.272;9.746;2023-04-08T03:30:32;8.60;60.40
16517;DHT22;8371;52.272;9.746;2023-04-08T03:32:58;8.60;60.20
16517;DHT22;8371;52.272;9.746;2023-04-08T03:35:24;8.60;60.20
16517;DHT22;8371;52.272;9.746;2023-04-08T03:37:49;8.60;60.10
16517;DHT22;8371;52.272;9.746;2023-04-08T03:40:15;8.60;59.80
16517;DHT22;8371;52.272;9.746;2023-04-08T03:42:41;8.60;60.10
16517;DHT22;8371;52.272;9.746;2023-04-08T03:45:07;8.60;60.10
16517;DHT22;8371;52.272;9.746;2023-04-08T03:47:33;8.60;59.80
16517;DHT22;8371;52.272;9.746;2023-04-08T03:49:58;8.70;59.90
16517;DHT22;8371;52.272;9.746;2023-04-08T03:52:24;8.60;59.90
16517;DHT22;8371;52.272;9.746;2023-04-08T03:54:50;8.70;60.00
16517;DHT22;8371;52.272;9.746;2023-04-08T03:57:16;8.70;60.30
16517;DHT22;8371;52.272;9.746;2023-04-08T03:59:41;8.70;60.70
16517;DHT22;8371;52.272;9.746;2023-04-08T04:02:07;8.70;60.70
16517;DHT22;8371;52.272;9.746;2023-04-08T04:04:33;8.70;60.40
16517;DHT22;8371;52.272;9.746;2023-04-08T04:07:00;8.70;60.30
16517;DHT22;8371;52.272;9.746;2023-04-08T04:09:25;8.70;60.80
16517;DHT22;8371;52.272;9.746;2023-04-08T04:11:51;8.70;60.80
16517;DHT22;8371;52.272;9.746;2023-04-08T04:14:17;8.70;60.50
16517;DHT22;8371;52.272;9.746;2023-04-08T04:16:43;8.70;60.20
16517;DHT22;8371;52.272;9.746;2023-04-08T04:19:08;8.70;60.60
16517;DHT22;8371;52.272;9.746;2023-04-08T04:24:12;8.70;61.00
16517;DHT22;8371;52.272;9.746;2023-04-08T04:26:41;8.70;60.80
16517;DHT22;8371;52.272;9.746;2023-04-08T04:29:07;8.70;61.00
16517;DHT22;8371;52.272;9.746;2023-04-08T04:31:32;8.60;61.20
16517;DHT22;8371;52.272;9.746;2023-04-08T04:33:58;8.70;61.90
16517;DHT22;8371;52.272;9.746;2023-04-08T04:36:24;8.70;61.40
16517;DHT22;8371;52.272;9.746;2023-04-08T04:38:49;8.70;61.10
16517;DHT22;8371;52.272;9.746;2023-04-08T04:41:15;8.70;60.90
16517;DHT22;8371;52.272;9.746;2023-04-08T04:43:42;8.70;61.00
16517;DHT22;8371;52.272;9.746;2023-04-08T04:46:08;8.70;61.50
16517;DHT22;8371;52.272;9.746;2023-04-08T04:48:34;8.70;61.20
16517;DHT22;8371;52.272;9.746;2023-04-08T04:51:00;8.70;61.40
16517;DHT22;8371;52.272;9.746;2023-04-08T04:53:29;8.70;62.00
16517;DHT22;8371;52.272;9.746;2023-04-08T04:55:55;8.70;62.00
16517;DHT22;8371;52.272;9.746;2023-04-08T04:58:21;8.70;62.10
16517;DHT22;8371;52.272;9.746;2023-04-08T05:00:46;8.70;63.00
16517;DHT22;8371;52.272;9.746;2023-04-08T05:03:12;8.70;63.50
16517;DHT22;8371;52.272;9.746;2023-04-08T05:05:38;8.70;63.20
16517;DHT22;8371;52.272;9.746;2023-04-08T05:08:04;8.70;63.20
16517;DHT22;8371;52.272;9.746;2023-04-08T05:10:31;8.70;63.90
16517;DHT22;8371;52.272;9.746;2023-04-08T05:12:57;8.60;63.20
16517;DHT22;8371;52.272;9.746;2023-04-08T05:15:23;8.70;64.70
16517;DHT22;8371;52.272;9.746;2023-04-08T05:17:48;8.70;66.10
16517;DHT22;8371;52.272;9.746;2023-04-08T05:20:14;8.70;66.00
16517;DHT22;8371;52.272;9.746;2023-04-08T05:22:40;8.60;65.40
16517;DHT22;8371;52.272;9.746;2023-04-08T05:25:07;8.60;65.20
16517;DHT22;8371;52.272;9.746;2023-04-08T05:27:33;8.60;64.90
16517;DHT22;8371;52.272;9.746;2023-04-08T05:29:58;8.60;65.80
16517;DHT22;8371;52.272;9.746;2023-04-08T05:32:24;8.60;65.50
16517;DHT22;8371;52.272;9.746;2023-04-08T05:34:50;8.60;66.70
16517;DHT22;8371;52.272;9.746;2023-04-08T05:37:16;8.60;66.10
16517;DHT22;8371;52.272;9.746;2023-04-08T05:39:41;8.60;67.00
16517;DHT22;8371;52.272;9.746;2023-04-08T05:42:07;8.60;65.60
16517;DHT22;8371;52.272;9.746;2023-04-08T05:44:33;8.60;67.20
16517;DHT22;8371;52.272;9.746;2023-04-08T05:46:58;8.60;66.70
16517;DHT22;8371;52.272;9.746;2023-04-08T05:49:24;8.60;66.60
16517;DHT22;8371;52.272;9.746;2023-04-08T05:51:50;8.60;66.60
16517;DHT22;8371;52.272;9.746;2023-04-08T05:54:16;8.60;66.30
16517;DHT22;8371;52.272;9.746;2023-04-08T05:56:41;8.60;66.20
16517;DHT22;8371;52.272;9.746;2023-04-08T05:59:09;8.60;67.20
16517;DHT22;8371;52.272;9.746;2023-04-08T06:01:35;8.60;68.60
16517;DHT22;8371;52.272;9.746;2023-04-08T06:04:00;8.60;67.40
16517;DHT22;8371;52.272;9.746;2023-04-08T06:06:32;8.70;68.00
16517;DHT22;8371;52.272;9.746;2023-04-08T06:08:57;8.50;67.00
16517;DHT22;8371;52.272;9.746;2023-04-08T06:11:23;8.60;66.70
16517;DHT22;8371;52.272;9.746;2023-04-08T06:13:49;8.70;67.50
16517;DHT22;8371;52.272;9.746;2023-04-08T06:16:16;8.70;67.70
16517;DHT22;8371;52.272;9.746;2023-04-08T06:18:42;8.70;67.80
16517;DHT22;8371;52.272;9.746;2023-04-08T06:21:09;8.70;67.70
16517;DHT22;8371;52.272;9.746;2023-04-08T06:23:34;8.70;68.50
16517;DHT22;8371;52.272;9.746;2023-04-08T06:26:00;8.70;68.40
16517;DHT22;8371;52.272;9.746;2023-04-08T06:28:28;8.70;69.00
16517;DHT22;8371;52.272;9.746;2023-04-08T06:30:55;8.70;70.00
16517;DHT22;8371;52.272;9.746;2023-04-08T06:33:21;8.70;68.90
16517;DHT22;8371;52.272;9.746;2023-04-08T06:35:47;8.80;70.00
16517;DHT22;8371;52.272;9.746;2023-04-08T06:38:12;8.80;69.40
16517;DHT22;8371;52.272;9.746;2023-04-08T06:40:39;8.80;69.90
16517;DHT22;8371;52.272;9.746;2023-04-08T06:43:05;8.80;70.50
16517;DHT22;8371;52.272;9.746;2023-04-08T06:45:34;8.80;69.60
16517;DHT22;8371;52.272;9.746;2023-04-08T06:48:00;8.90;68.80
16517;DHT22;8371;52.272;9.746;2023-04-08T06:50:25;8.90;68.90
16517;DHT22;8371;52.272;9.746;2023-04-08T06:52:51;8.90;69.80
16517;DHT22;8371;52.272;9.746;2023-04-08T06:55:17;9.00;70.80
16517;DHT22;8371;52.272;9.746;2023-04-08T06:57:42;9.00;70.40
16517;DHT22;8371;52.272;9.746;2023-04-08T07:00:09;9.10;69.90
16517;DHT22;8371;52.272;9.746;2023-04-08T07:02:35;9.10;69.30
16517;DHT22;8371;52.272;9.746;2023-04-08T07:05:01;9.20;69.60
16517;DHT22;8371;52.272;9.746;2023-04-08T07:07:26;9.20;69.00
16517;DHT22;8371;52.272;9.746;2023-04-08T07:09:52;9.20;68.20
16517;DHT22;8371;52.272;9.746;2023-04-08T07:12:38;9.30;68.30
16517;DHT22;8371;52.272;9.746;2023-04-08T07:15:04;9.30;68.20
16517;DHT22;8371;52.272;9.746;2023-04-08T07:17:30;9.40;68.80
16517;DHT22;8371;52.272;9.746;2023-04-08T07:19:56;9.40;68.80
16517;DHT22;8371;52.272;9.746;2023-04-08T07:22:22;9.40;68.20
16517;DHT22;8371;52.272;9.746;2023-04-08T07:24:48;9.40;69.00
16517;DHT22;8371;52.272;9.746;2023-04-08T07:27:17;9.50;69.90
16517;DHT22;8371;52.272;9.746;2023-04-08T07:29:42;9.50;68.80
16517;DHT22;8371;52.272;9.746;2023-04-08T07:32:08;9.50;69.00
16517;DHT22;8371;52.272;9.746;2023-04-08T07:34:34;9.60;69.00
16517;DHT22;8371;52.272;9.746;2023-04-08T07:37:01;9.60;68.40
16517;DHT22;8371;52.272;9.746;2023-04-08T07:39:27;9.70;68.50
16517;DHT22;8371;52.272;9.746;2023-04-08T07:41:52;9.70;68.50
16517;DHT22;8371;52.272;9.746;2023-04-08T07:44:18;9.70;67.90
16517;DHT22;8371;52.272;9.746;2023-04-08T07:46:44;9.80;67.70
16517;DHT22;8371;52.272;9.746;2023-04-08T07:49:12;9.80;68.20
16517;DHT22;8371;52.272;9.746;2023-04-08T07:51:37;9.80;68.50
16517;DHT22;8371;52.272;9.746;2023-04-08T07:54:03;9.90;67.70
16517;DHT22;8371;52.272;9.746;2023-04-08T07:56:29;10.00;68.50
16517;DHT22;8371;52.272;9.746;2023-04-08T07:58:55;10.00;68.20
16517;DHT22;8371;52.272;9.746;2023-04-08T08:01:22;10.00;67.80
16517;DHT22;8371;52.272;9.746;2023-04-08T08:03:49;10.00;67.60
16517;DHT22;8371;52.272;9.746;2023-04-08T08:06:15;10.00;67.30
16517;DHT22;8371;52.272;9.746;2023-04-08T08:08:40;10.00;67.60
16517;DHT22;8371;52.272;9.746;2023-04-08T08:11:06;10.10;67.40
16517;DHT22;8371;52.272;9.746;2023-04-08T08:13:32;10.10;66.70
16517;DHT22;8371;52.272;9.746;2023-04-08T08:15:57;10.10;66.90
16517;DHT22;8371;52.272;9.746;2023-04-08T08:18:23;10.20;67.50
16517;DHT22;8371;52.272;9.746;2023-04-08T08:20:49;10.20;66.90
16517;DHT22;8371;52.272;9.746;2023-04-08T08:23:15;10.30;67.00
16517;DHT22;8371;52.272;9.746;2023-04-08T08:25:41;10.40;68.20
16517;DHT22;8371;52.272;9.746;2023-04-08T08:28:06;10.40;68.20
16517;DHT22;8371;52.272;9.746;2023-04-08T08:30:32;10.50;67.70
16517;DHT22;8371;52.272;9.746;2023-04-08T08:32:58;10.50;66.70
16517;DHT22;8371;52.272;9.746;2023-04-08T08:35:25;10.50;66.80
16517;DHT22;8371;52.272;9.746;2023-04-08T08:37:50;10.50;67.00
16517;DHT22;8371;52.272;9.746;2023-04-08T08:40:16;10.50;66.90
16517;DHT22;8371;52.272;9.746;2023-04-08T08:42:50;10.50;66.90
16517;DHT22;8371;52.272;9.746;2023-04-08T08:45:19;10.50;66.60
16517;DHT22;8371;52.272;9.746;2023-04-08T08:47:45;10.50;67.30
16517;DHT22;8371;52.272;9.746;2023-04-08T08:50:11;10.50;67.20
16517;DHT22;8371;52.272;9.746;2023-04-08T08:52:37;10.50;67.60
16517;DHT22;8371;52.272;9.746;2023-04-08T08:55:03;10.60;67.20
16517;DHT22;8371;52.272;9.746;2023-04-08T08:57:28;10.60;66.90
16517;DHT22;8371;52.272;9.746;2023-04-08T08:59:54;10.70;66.60
16517;DHT22;8371;52.272;9.746;2023-04-08T09:02:29;10.70;67.00
16517;DHT22;8371;52.272;9.746;2023-04-08T09:04:55;10.80;66.70
16517;DHT22;8371;52.272;9.746;2023-04-08T09:07:23;10.90;66.10
16517;DHT22;8371;52.272;9.746;2023-04-08T09:09:52;10.90;66.00
16517;DHT22;8371;52.272;9.746;2023-04-08T09:12:18;11.00;67.00
16517;DHT22;8371;52.272;9.746;2023-04-08T09:14:44;11.10;66.90
16517;DHT22;8371;52.272;9.746;2023-04-08T09:17:09;11.20;67.10
16517;DHT22;8371;52.272;9.746;2023-04-08T09:19:35;11.20;66.50
16517;DHT22;8371;52.272;9.746;2023-04-08T09:22:09;11.20;66.00
16517;DHT22;8371;52.272;9.746;2023-04-08T09:24:35;11.30;65.70
16517;DHT22;8371;52.272;9.746;2023-04-08T09:27:03;11.30;65.80
16517;DHT22;8371;52.272;9.746;2023-04-08T09:29:28;11.30;65.90
16517;DHT22;8371;52.272;9.746;2023-04-08T09:31:56;11.30;66.10
16517;DHT22;8371;52.272;9.746;2023-04-08T09:34:22;11.30;65.90
16517;DHT22;8371;52.272;9.746;2023-04-08T09:36:49;11.40;66.60
16517;DHT22;8371;52.272;9.746;2023-04-08T09:39:16;11.40;66.00
16517;DHT22;8371;52.272;9.746;2023-04-08T09:41:42;11.40;66.70
16517;DHT22;8371;52.272;9.746;2023-04-08T09:44:10;11.40;66.20
16517;DHT22;8371;52.272;9.746;2023-04-08T09:49:27;11.40;66.60
16517;DHT22;8371;52.272;9.746;2023-04-08T09:52:09;11.40;66.20
16517;DHT22;8371;52.272;9.746;2023-04-08T09:57:12;11.40;66.40
16517;DHT22;8371;52.272;9.746;2023-04-08T09:59:41;11.40;65.50
16517;DHT22;8371;52.272;9.746;2023-04-08T10:02:09;11.40;65.60
16517;DHT22;8371;52.272;9.746;2023-04-08T10:04:38;11.40;65.50
16517;DHT22;8371;52.272;9.746;2023-04-08T10:07:07;11.50;66.60
16517;DHT22;8371;52.272;9.746;2023-04-08T10:09:33;11.50;67.00
16517;DHT22;8371;52.272;9.746;2023-04-08T10:12:00;11.50;66.50
16517;DHT22;8371;52.272;9.746;2023-04-08T10:14:27;11.60;66.60
16517;DHT22;8371;52.272;9.746;2023-04-08T10:17:25;11.70;66.90
16517;DHT22;8371;52.272;9.746;2023-04-08T10:19:55;11.70;67.00
16517;DHT22;8371;52.272;9.746;2023-04-08T10:25:27;11.80;65.80
16517;DHT22;8371;52.272;9.746;2023-04-08T10:27:52;11.90;65.80
16517;DHT22;8371;52.272;9.746;2023-04-08T10:32:58;11.90;65.20
16517;DHT22;8371;52.272;9.746;2023-04-08T10:35:36;11.90;65.50
16517;DHT22;8371;52.272;9.746;2023-04-08T10:38:02;11.90;65.10
16517;DHT22;8371;52.272;9.746;2023-04-08T10:40:34;11.90;65.70
16517;DHT22;8371;52.272;9.746;2023-04-08T10:42:58;12.00;65.50
16517;DHT22;8371;52.272;9.746;2023-04-08T10:45:24;12.00;65.50
16517;DHT22;8371;52.272;9.746;2023-04-08T10:47:50;12.00;66.00
16517;DHT22;8371;52.272;9.746;2023-04-08T10:50:18;12.00;65.30
16517;DHT22;8371;52.272;9.746;2023-04-08T10:52:52;12.00;65.70
16517;DHT22;8371;52.272;9.746;2023-04-08T10:55:22;12.00;66.40
16517;DHT22;8371;52.272;9.746;2023-04-08T10:57:49;12.00;65.70
16517;DHT22;8371;52.272;9.746;2023-04-08T11:00:54;12.00;65.60
16517;DHT22;8371;52.272;9.746;2023-04-08T11:02:54;12.00;65.50
16517;DHT22;8371;52.272;9.746;2023-04-08T11:05:21;12.00;65.50
16517;DHT22;8371;52.272;9.746;2023-04-08T11:07:47;12.00;65.90
16517;DHT22;8371;52.272;9.746;2023-04-08T11:10:13;12.00;65.80
16517;DHT22;8371;52.272;9.746;2023-04-08T11:12:39;12.00;66.00
16517;DHT22;8371;52.272;9.746;2023-04-08T11:15:05;12.00;65.70
16517;DHT22;8371;52.272;9.746;2023-04-08T11:17:33;12.00;66.10
16517;DHT22;8371;52.272;9.746;2023-04-08T11:19:59;12.00;66.20
16517;DHT22;8371;52.272;9.746;2023-04-08T11:22:27;12.00;65.60
16517;DHT22;8371;52.272;9.746;2023-04-08T11:24:55;12.00;65.90
16517;DHT22;8371;52.272;9.746;2023-04-08T11:27:21;12.00;65.70
16517;DHT22;8371;52.272;9.746;2023-04-08T11:29:50;12.10;65.20
16517;DHT22;8371;52.272;9.746;2023-04-08T11:32:16;12.10;65.50
16517;DHT22;8371;52.272;9.746;2023-04-08T11:34:42;12.10;65.40
16517;DHT22;8371;52.272;9.746;2023-04-08T11:37:07;12.10;65.80
16517;DHT22;8371;52.272;9.746;2023-04-08T11:39:33;12.10;65.60
16517;DHT22;8371;52.272;9.746;2023-04-08T11:41:59;12.10;65.30
16517;DHT22;8371;52.272;9.746;2023-04-08T11:44:31;12.10;66.00
16517;DHT22;8371;52.272;9.746;2023-04-08T11:47:00;12.10;65.80
16517;DHT22;8371;52.272;9.746;2023-04-08T11:49:27;12.10;65.80
16517;DHT22;8371;52.272;9.746;2023-04-08T11:51:55;12.10;65.70
16517;DHT22;8371;52.272;9.746;2023-04-08T11:54:29;12.10;65.70
16517;DHT22;8371;52.272;9.746;2023-04-08T11:56:57;12.20;66.20
16517;DHT22;8371;52.272;9.746;2023-04-08T11:59:23;12.20;65.80
16517;DHT22;8371;52.272;9.746;2023-04-08T12:01:50;12.20;65.50
16517;DHT22;8371;52.272;9.746;2023-04-08T12:04:16;12.20;65.40
16517;DHT22;8371;52.272;9.746;2023-04-08T12:06:42;12.20;65.90
16517;DHT22;8371;52.272;9.746;2023-04-08T12:09:09;12.20;65.40
16517;DHT22;8371;52.272;9.746;2023-04-08T12:11:35;12.20;65.20
16517;DHT22;8371;52.272;9.746;2023-04-08T12:14:01;12.20;65.00
16517;DHT22;8371;52.272;9.746;2023-04-08T12:16:27;12.20;64.80
16517;DHT22;8371;52.272;9.746;2023-04-08T12:18:52;12.20;64.90
16517;DHT22;8371;52.272;9.746;2023-04-08T12:21:18;12.20;65.00
16517;DHT22;8371;52.272;9.746;2023-04-08T12:23:44;12.20;65.70
16517;DHT22;8371;52.272;9.746;2023-04-08T12:26:10;12.20;65.50
16517;DHT22;8371;52.272;9.746;2023-04-08T12:28:36;12.20;65.70
16517;DHT22;8371;52.272;9.746;2023-04-08T12:31:02;12.20;65.20
16517;DHT22;8371;52.272;9.746;2023-04-08T12:33:28;12.30;65.40
16517;DHT22;8371;52.272;9.746;2023-04-08T12:35:53;12.20;65.10
16517;DHT22;8371;52.272;9.746;2023-04-08T12:38:19;12.20;65.40
16517;DHT22;8371;52.272;9.746;2023-04-08T12:40:45;12.30;65.10
16517;DHT22;8371;52.272;9.746;2023-04-08T12:43:30;12.30;66.10
16517;DHT22;8371;52.272;9.746;2023-04-08T12:45:57;12.30;65.90
16517;DHT22;8371;52.272;9.746;2023-04-08T12:48:22;12.30;65.60
16517;DHT22;8371;52.272;9.746;2023-04-08T12:50:48;12.30;65.20
16517;DHT22;8371;52.272;9.746;2023-04-08T12:53:14;12.30;65.60
16517;DHT22;8371;52.272;9.746;2023-04-08T12:55:39;12.20;65.70
16517;DHT22;8371;52.272;9.746;2023-04-08T12:58:05;12.20;65.30
16517;DHT22;8371;52.272;9.746;2023-04-08T13:00:31;12.30;65.80
16517;DHT22;8371;52.272;9.746;2023-04-08T13:02:57;12.30;65.70
16517;DHT22;8371;52.272;9.746;2023-04-08T13:05:22;12.30;65.80
16517;DHT22;8371;52.272;9.746;2023-04-08T13:07:48;12.40;66.10
16517;DHT22;8371;52.272;9.746;2023-04-08T13:10:13;12.40;66.70
16517;DHT22;8371;52.272;9.746;2023-04-08T13:12:39;12.40;66.00
16517;DHT22;8371;52.272;9.746;2023-04-08T13:15:06;12.50;66.00
16517;DHT22;8371;52.272;9.746;2023-04-08T13:17:32;12.60;66.10
16517;DHT22;8371;52.272;9.746;2023-04-08T13:19:58;12.70;66.10
16517;DHT22;8371;52.272;9.746;2023-04-08T13:22:23;12.80;66.00
16517;DHT22;8371;52.272;9.746;2023-04-08T13:24:49;12.90;65.60
16517;DHT22;8371;52.272;9.746;2023-04-08T13:27:15;13.00;65.40
16517;DHT22;8371;52.272;9.746;2023-04-08T13:29:41;13.10;65.60
16517;DHT22;8371;52.272;9.746;2023-04-08T13:32:07;13.20;65.20
16517;DHT22;8371;52.272;9.746;2023-04-08T13:34:33;13.20;64.60
16517;DHT22;8371;52.272;9.746;2023-04-08T13:36:58;13.20;64.60
16517;DHT22;8371;52.272;9.746;2023-04-08T13:39:24;13.30;64.50
16517;DHT22;8371;52.272;9.746;2023-04-08T13:41:50;13.40;64.80
16517;DHT22;8371;52.272;9.746;2023-04-08T13:44:16;13.40;65.00
16517;DHT22;8371;52.272;9.746;2023-04-08T13:46:42;13.50;64.80
16517;DHT22;8371;52.272;9.746;2023-04-08T13:49:08;13.50;64.50
16517;DHT22;8371;52.272;9.746;2023-04-08T13:51:34;13.50;64.30
16517;DHT22;8371;52.272;9.746;2023-04-08T13:53:59;13.50;64.00
16517;DHT22;8371;52.272;9.746;2023-04-08T13:56:25;13.50;63.70
16517;DHT22;8371;52.272;9.746;2023-04-08T13:58:51;13.50;64.50
16517;DHT22;8371;52.272;9.746;2023-04-08T14:01:17;13.50;63.90
16517;DHT22;8371;52.272;9.746;2023-04-08T14:03:42;13.50;64.10
16517;DHT22;8371;52.272;9.746;2023-04-08T14:06:08;13.50;64.10
16517;DHT22;8371;52.272;9.746;2023-04-08T14:08:34;13.60;63.90
16517;DHT22;8371;52.272;9.746;2023-04-08T14:10:59;13.50;63.80
16517;DHT22;8371;52.272;9.746;2023-04-08T14:13:25;13.60;63.90
16517;DHT22;8371;52.272;9.746;2023-04-08T14:15:51;13.60;63.90
16517;DHT22;8371;52.272;9.746;2023-04-08T14:18:18;13.60;63.80
16517;DHT22;8371;52.272;9.746;2023-04-08T14:20:44;13.60;63.50
16517;DHT22;8371;52.272;9.746;2023-04-08T14:23:10;13.60;63.60
16517;DHT22;8371;52.272;9.746;2023-04-08T14:25:37;13.60;63.60
16517;DHT22;8371;52.272;9.746;2023-04-08T14:28:03;13.50;64.50
16517;DHT22;8371;52.272;9.746;2023-04-08T14:30:29;13.50;63.70
16517;DHT22;8371;52.272;9.746;2023-04-08T14:32:54;13.50;63.60
16517;DHT22;8371;52.272;9.746;2023-04-08T14:35:20;13.50;63.60
16517;DHT22;8371;52.272;9.746;2023-04-08T14:37:46;13.50;63.50
16517;DHT22;8371;52.272;9.746;2023-04-08T14:40:12;13.50;63.70
16517;DHT22;8371;52.272;9.746;2023-04-08T14:42:37;13.40;63.90
16517;DHT22;8371;52.272;9.746;2023-04-08T14:45:03;13.40;63.70
16517;DHT22;8371;52.272;9.746;2023-04-08T14:47:29;13.40;63.60
16517;DHT22;8371;52.272;9.746;2023-04-08T14:49:55;13.40;63.40
16517;DHT22;8371;52.272;9.746;2023-04-08T14:52:21;13.40;63.40
16517;DHT22;8371;52.272;9.746;2023-04-08T14:54:47;13.40;63.40
16517;DHT22;8371;52.272;9.746;2023-04-08T14:57:13;13.30;64.50
16517;DHT22;8371;52.272;9.746;2023-04-08T14:59:41;13.30;64.10
16517;DHT22;8371;52.272;9.746;2023-04-08T15:02:06;13.30;65.00
16517;DHT22;8371;52.272;9.746;2023-04-08T15:04:32;13.20;63.70
16517;DHT22;8371;52.272;9.746;2023-04-08T15:06:58;13.20;63.90
16517;DHT22;8371;52.272;9.746;2023-04-08T15:09:23;13.20;63.90
16517;DHT22;8371;52.272;9.746;2023-04-08T15:11:49;13.20;63.90
16517;DHT22;8371;52.272;9.746;2023-04-08T15:14:15;13.10;64.40
16517;DHT22;8371;52.272;9.746;2023-04-08T15:16:41;13.10;64.10
16517;DHT22;8371;52.272;9.746;2023-04-08T15:19:06;13.10;64.50
16517;DHT22;8371;52.272;9.746;2023-04-08T15:21:32;13.10;63.90
16517;DHT22;8371;52.272;9.746;2023-04-08T15:23:58;13.10;64.20
16517;DHT22;8371;52.272;9.746;2023-04-08T15:26:23;13.00;64.20
16517;DHT22;8371;52.272;9.746;2023-04-08T15:28:49;13.00;64.10
16517;DHT22;8371;52.272;9.746;2023-04-08T15:31:16;13.00;64.70
16517;DHT22;8371;52.272;9.746;2023-04-08T15:33:42;13.00;64.00
16517;DHT22;8371;52.272;9.746;2023-04-08T15:36:10;12.90;63.80
16517;DHT22;8371;52.272;9.746;2023-04-08T15:38:35;12.90;63.80
16517;DHT22;8371;52.272;9.746;2023-04-08T15:41:01;12.80;63.90
16517;DHT22;8371;52.272;9.746;2023-04-08T15:43:27;12.80;63.90
16517;DHT22;8371;52.272;9.746;2023-04-08T15:45:53;12.80;64.20
16517;DHT22;8371;52.272;9.746;2023-04-08T15:48:19;12.80;64.10
16517;DHT22;8371;52.272;9.746;2023-04-08T15:50:45;12.80;64.00
16517;DHT22;8371;52.272;9.746;2023-04-08T15:53:10;12.70;64.20
16517;DHT22;8371;52.272;9.746;2023-04-08T15:55:38;12.70;64.20
16517;DHT22;8371;52.272;9.746;2023-04-08T15:58:05;12.70;64.10
16517;DHT22;8371;52.272;9.746;2023-04-08T16:00:31;12.70;64.10
16517;DHT22;8371;52.272;9.746;2023-04-08T16:02:56;12.70;64.20
16517;DHT22;8371;52.272;9.746;2023-04-08T16:05:22;12.60;64.40
16517;DHT22;8371;52.272;9.746;2023-04-08T16:07:48;12.60;64.40